Time;durP1;ratioP1;P1;durP2;ratioP2;P2;SDS_P1;SDS_P2;PMS_P1;PMS_P2;Temp;Humidity;BMP_temperature;BMP_pressure;BME280_temperature;BME280_humidity;BME280_pressure;Samples;Min_cycle;Max_cycle;Signal;HPM_P1;HPM_P2
2021/11/26 00:00:05;;;;;;;37.58;15.93;;;;;;;4.17;100.00;99653.22;5160824;28;20026;-78
2021/11/26 00:02:36;;;;;;;38.55;15.93;;;;;;;4.25;100.00;99651.28;5144769;28;20030;-77
2021/11/26 00:05:07;;;;;;;38.88;15.60;;;;;;;4.07;100.00;99656.06;5157656;28;20037;-78
2021/11/26 00:07:37;;;;;;;42.22;15.77;;;;;;;4.04;100.00;99653.56;5151988;28;20030;-77
2021/11/26 00:10:08;;;;;;;34.03;15.57;;;;;;;4.11;100.00;99644.78;5150865;28;20031;-78
2021/11/26 00:12:39;;;;;;;35.17;15.35;;;;;;;4.13;100.00;99641.25;5157462;28;20027;-78
2021/11/26 00:17:48;;;;;;;36.22;14.73;;;;;;;4.11;100.00;99635.28;5151221;28;20030;-78
2021/11/26 00:20:19;;;;;;;33.58;13.95;;;;;;;4.11;100.00;99634.44;5158768;28;20038;-78
2021/11/26 00:22:50;;;;;;;35.72;14.68;;;;;;;4.11;100.00;99624.09;5161647;28;20034;-78
2021/11/26 00:25:20;;;;;;;32.72;13.77;;;;;;;4.21;100.00;99621.25;5163690;28;20037;-78
2021/11/26 00:27:51;;;;;;;30.45;12.80;;;;;;;4.25;100.00;99616.81;5162674;28;20015;-77
2021/11/26 00:30:22;;;;;;;30.83;13.13;;;;;;;4.21;100.00;99613.47;5156564;28;20088;-78
2021/11/26 00:32:52;;;;;;;33.03;13.13;;;;;;;4.28;100.00;99617.59;5143626;28;20213;-77
2021/11/26 00:35:24;;;;;;;30.67;13.13;;;;;;;4.37;100.00;99612.19;5160114;28;20034;-78
2021/11/26 00:37:54;;;;;;;31.60;12.65;;;;;;;4.35;100.00;99607.94;5140973;28;20030;-78
2021/11/26 00:40:25;;;;;;;31.90;13.00;;;;;;;4.41;100.00;99608.63;5160556;28;20026;-78
2021/11/26 00:42:55;;;;;;;30.33;12.70;;;;;;;4.27;100.00;99608.16;5142503;28;20027;-78
2021/11/26 00:45:26;;;;;;;31.80;12.27;;;;;;;4.32;100.00;99600.28;5142650;28;20381;-78
2021/11/26 00:47:56;;;;;;;29.48;11.48;;;;;;;4.19;100.00;99607.50;5151661;28;20029;-78
2021/11/26 00:50:27;;;;;;;32.47;12.10;;;;;;;4.22;100.00;99607.41;5144852;28;20019;-78
2021/11/26 00:52:58;;;;;;;26.65;11.82;;;;;;;4.37;100.00;99603.59;5163248;28;20026;-77
2021/11/26 00:55:28;;;;;;;27.90;11.82;;;;;;;4.32;100.00;99603.69;5165038;28;20057;-77
2021/11/26 00:57:59;;;;;;;31.10;11.90;;;;;;;4.26;100.00;99597.84;5162690;28;20520;-78
2021/11/26 01:00:31;;;;;;;28.48;12.23;;;;;;;4.24;100.00;99592.72;5148376;28;20030;-77
2021/11/26 01:03:06;;;;;;;28.75;11.43;;;;;;;4.24;100.00;99587.53;5162130;28;20131;-78
2021/11/26 01:05:36;;;;;;;32.13;11.20;;;;;;;4.26;100.00;99596.09;5152265;28;20038;-77
2021/11/26 01:08:06;;;;;;;24.48;11.18;;;;;;;4.23;100.00;99593.59;5151835;28;20090;-78
2021/11/26 01:10:37;;;;;;;28.10;10.80;;;;;;;4.34;100.00;99589.00;5161523;28;20041;-78
2021/11/26 01:13:08;;;;;;;26.88;11.32;;;;;;;4.22;100.00;99586.75;5160924;28;20117;-78
2021/11/26 01:15:43;;;;;;;30.65;11.27;;;;;;;4.23;100.00;99578.09;5157873;28;20031;-77
2021/11/26 01:18:15;;;;;;;26.02;11.02;;;;;;;4.28;100.00;99571.06;5156564;28;20031;-77
2021/11/26 01:20:46;;;;;;;22.60;9.77;;;;;;;4.29;100.00;99571.91;5163926;28;20046;-78
2021/11/26 01:23:17;;;;;;;28.20;10.63;;;;;;;4.40;100.00;99575.03;5145536;28;20065;-76
2021/11/26 01:25:47;;;;;;;28.58;10.88;;;;;;;4.41;100.00;99571.56;5164912;28;20030;-78
2021/11/26 01:28:17;;;;;;;30.75;10.73;;;;;;;4.47;100.00;99574.00;5140098;28;20038;-76
2021/11/26 01:30:49;;;;;;;29.13;11.25;;;;;;;4.53;100.00;99566.06;5137874;28;20027;-77
2021/11/26 01:33:20;;;;;;;24.58;10.23;;;;;;;4.57;100.00;99568.53;5149488;28;20034;-78
2021/11/26 01:35:53;;;;;;;26.23;10.27;;;;;;;4.53;100.00;99566.94;5167981;28;20022;-77
2021/11/26 01:38:25;;;;;;;26.35;10.35;;;;;;;4.57;100.00;99560.78;5148346;28;20116;-77
2021/11/26 01:40:55;;;;;;;25.90;9.88;;;;;;;4.53;100.00;99554.00;5147451;28;20097;-77
2021/11/26 01:43:26;;;;;;;22.83;9.93;;;;;;;4.52;100.00;99564.38;5143540;28;20030;-78
2021/11/26 01:46:08;;;;;;;31.13;10.00;;;;;;;4.65;100.00;99553.63;5148121;28;20026;-78
2021/11/26 01:48:41;;;;;;;23.50;9.45;;;;;;;4.63;100.00;99552.84;5134204;28;20042;-77
2021/11/26 01:51:11;;;;;;;23.92;9.90;;;;;;;4.65;100.00;99547.63;5138303;28;20022;-78
2021/11/26 01:53:42;;;;;;;23.08;9.32;;;;;;;4.68;100.00;99540.63;5165040;28;20037;-77
2021/11/26 01:56:12;;;;;;;27.00;9.27;;;;;;;4.65;100.00;99530.34;5151962;28;20031;-78
2021/11/26 01:58:42;;;;;;;22.38;9.75;;;;;;;4.64;100.00;99526.06;5147611;28;20568;-78
2021/11/26 02:01:13;;;;;;;27.35;9.65;;;;;;;4.69;100.00;99524.22;5150795;28;20117;-78
2021/11/26 02:03:44;;;;;;;23.08;8.98;;;;;;;4.79;100.00;99519.63;5164745;28;20030;-77
2021/11/26 02:06:15;;;;;;;24.77;9.65;;;;;;;4.78;100.00;99520.53;5168342;28;20223;-78
2021/11/26 02:08:47;;;;;;;25.60;8.98;;;;;;;4.66;100.00;99518.28;5167274;28;20030;-78
2021/11/26 02:11:18;;;;;;;23.42;9.20;;;;;;;4.62;100.00;99507.16;5161088;28;20034;-77
2021/11/26 02:13:49;;;;;;;24.80;9.68;;;;;;;4.69;100.00;99505.25;5165713;28;20022;-78
2021/11/26 02:16:19;;;;;;;23.90;9.02;;;;;;;4.70;100.00;99501.75;5158329;28;20511;-77
2021/11/26 02:18:50;;;;;;;22.10;8.88;;;;;;;4.60;100.00;99495.19;5136170;28;20034;-77
2021/11/26 02:21:21;;;;;;;24.60;9.80;;;;;;;4.58;100.00;99481.41;5165350;28;20026;-78
2021/11/26 02:23:52;;;;;;;24.25;9.25;;;;;;;4.74;100.00;99483.53;5155714;28;20034;-78
2021/11/26 02:26:22;;;;;;;25.90;8.63;;;;;;;4.80;100.00;99472.97;5169669;28;20182;-77
2021/11/26 02:28:53;;;;;;;25.60;9.35;;;;;;;4.79;100.00;99471.28;5162697;28;20171;-77
2021/11/26 02:31:23;;;;;;;24.48;9.27;;;;;;;4.73;100.00;99455.97;5170889;28;20054;-77
2021/11/26 02:33:53;;;;;;;23.73;9.55;;;;;;;4.76;100.00;99457.59;5169785;28;20499;-76
2021/11/26 02:36:24;;;;;;;21.20;9.18;;;;;;;4.70;100.00;99456.06;5161674;28;20038;-78
2021/11/26 02:38:55;;;;;;;24.85;9.60;;;;;;;4.79;100.00;99455.75;5167977;28;20033;-78
2021/11/26 02:41:26;;;;;;;25.65;9.27;;;;;;;4.74;100.00;99451.59;5161489;28;20536;-78
2021/11/26 02:43:56;;;;;;;22.90;9.35;;;;;;;4.79;100.00;99442.81;5158077;28;20054;-78
2021/11/26 02:46:27;;;;;;;27.02;9.63;;;;;;;4.79;100.00;99453.16;5142893;28;20550;-78
2021/11/26 02:48:57;;;;;;;23.23;9.00;;;;;;;4.70;100.00;99450.00;5140488;28;20054;-77
2021/11/26 02:51:29;;;;;;;30.88;9.68;;;;;;;4.74;100.00;99442.13;5147639;28;20451;-78
2021/11/26 02:53:59;;;;;;;29.88;9.18;;;;;;;4.77;100.00;99444.59;5157144;28;20035;-78
2021/11/26 02:56:30;;;;;;;27.75;9.95;;;;;;;4.73;100.00;99437.84;5168514;28;20147;-78
2021/11/26 02:59:00;;;;;;;29.92;9.77;;;;;;;4.78;100.00;99435.94;5156356;28;20114;-78
2021/11/26 03:01:31;;;;;;;22.15;9.27;;;;;;;4.80;100.00;99428.97;5156613;28;20030;-78
2021/11/26 03:04:01;;;;;;;25.98;9.32;;;;;;;4.74;100.00;99420.56;5157044;28;20046;-78
2021/11/26 03:06:32;;;;;;;26.20;9.18;;;;;;;4.65;100.00;99420.84;5152613;28;20067;-78
2021/11/26 03:09:02;;;;;;;25.35;9.15;;;;;;;4.61;100.00;99414.91;5163227;28;20050;-78
2021/11/26 03:11:33;;;;;;;22.75;9.30;;;;;;;4.56;100.00;99414.22;5142753;28;20488;-77
2021/11/26 03:14:03;;;;;;;22.60;9.65;;;;;;;4.55;100.00;99404.78;5163754;28;20029;-78
2021/11/26 03:16:34;;;;;;;29.35;9.88;;;;;;;4.52;100.00;99415.22;5153440;28;20030;-78
2021/11/26 03:19:04;;;;;;;26.98;10.05;;;;;;;4.53;100.00;99406.56;5133676;28;20038;-77
2021/11/26 03:21:35;;;;;;;23.67;10.13;;;;;;;4.47;100.00;99411.91;5135783;28;20113;-78
2021/11/26 03:24:05;;;;;;;23.67;10.27;;;;;;;4.55;100.00;99406.50;5155959;28;20050;-78
2021/11/26 03:26:36;;;;;;;24.83;9.27;;;;;;;4.64;100.00;99398.47;5156245;28;20042;-78
2021/11/26 03:29:06;;;;;;;26.38;10.05;;;;;;;4.63;100.00;99407.97;5153216;28;20504;-76
2021/11/26 03:31:37;;;;;;;26.42;9.65;;;;;;;4.59;100.00;99392.56;5167097;28;20476;-76
2021/11/26 03:34:08;;;;;;;23.42;10.02;;;;;;;4.56;100.00;99390.94;5162984;28;20057;-78
2021/11/26 03:36:39;;;;;;;28.23;9.70;;;;;;;4.62;100.00;99382.97;5146840;28;20479;-77
2021/11/26 03:39:09;;;;;;;25.65;10.38;;;;;;;4.57;100.00;99381.41;5145697;28;20037;-76
2021/11/26 03:41:39;;;;;;;31.33;10.75;;;;;;;4.59;100.00;99377.91;5144868;28;20090;-78
2021/11/26 03:44:10;;;;;;;34.20;10.55;;;;;;;4.62;100.00;99375.22;5141466;28;20077;-78
2021/11/26 03:46:40;;;;;;;28.75;10.75;;;;;;;4.66;100.00;99366.47;5132817;28;20038;-78
2021/11/26 03:49:11;;;;;;;28.73;10.70;;;;;;;4.63;100.00;99365.72;5139403;28;20045;-76
2021/11/26 03:51:41;;;;;;;21.70;10.00;;;;;;;4.64;100.00;99351.91;5147186;28;20117;-77
2021/11/26 03:54:12;;;;;;;30.00;10.05;;;;;;;4.69;100.00;99358.63;5149002;28;20091;-78
2021/11/26 03:56:42;;;;;;;26.45;9.05;;;;;;;4.64;100.00;99349.31;5138524;28;20035;-78
2021/11/26 03:59:13;;;;;;;26.52;10.43;;;;;;;4.65;100.00;99351.84;5140100;28;20031;-76
2021/11/26 04:01:43;;;;;;;30.65;10.02;;;;;;;4.62;100.00;99348.53;5140981;28;20030;-76
2021/11/26 04:04:14;;;;;;;24.98;10.20;;;;;;;4.55;100.00;99349.59;5166237;28;20443;-78
2021/11/26 04:06:44;;;;;;;35.40;11.25;;;;;;;4.50;100.00;99344.56;5166042;28;20038;-77
2021/11/26 04:09:15;;;;;;;27.23;10.68;;;;;;;4.50;100.00;99334.22;5157452;28;20043;-78
2021/11/26 04:11:45;;;;;;;27.25;10.43;;;;;;;4.52;100.00;99334.16;5150494;28;20023;-79
2021/11/26 04:14:16;;;;;;;30.52;10.65;;;;;;;4.51;100.00;99335.06;5159998;28;20034;-76
2021/11/26 04:16:47;;;;;;;25.33;9.50;;;;;;;4.44;100.00;99320.66;5153096;28;20114;-77
2021/11/26 04:19:18;;;;;;;28.80;9.98;;;;;;;4.50;100.00;99329.03;5155595;28;20031;-76
2021/11/26 04:21:49;;;;;;;35.15;10.50;;;;;;;4.54;100.00;99322.03;5136671;28;20421;-78
2021/11/26 04:24:19;;;;;;;25.60;9.73;;;;;;;4.47;100.00;99313.63;5161325;28;20031;-78
2021/11/26 04:26:49;;;;;;;28.67;10.13;;;;;;;4.54;100.00;99309.97;5140838;28;20033;-78
2021/11/26 04:29:20;;;;;;;22.73;10.48;;;;;;;4.51;100.00;99309.19;5162965;28;20353;-76
2021/11/26 04:31:50;;;;;;;27.85;10.40;;;;;;;4.50;100.00;99310.09;5158914;28;20022;-77
2021/11/26 04:34:21;;;;;;;23.00;9.75;;;;;;;4.50;100.00;99310.94;5154349;28;20038;-77
2021/11/26 04:36:51;;;;;;;25.60;9.57;;;;;;;4.48;100.00;99312.72;5146977;28;20034;-77
2021/11/26 04:39:22;;;;;;;28.55;11.05;;;;;;;4.50;100.00;99308.34;5159663;28;20031;-78
2021/11/26 04:41:52;;;;;;;27.65;10.38;;;;;;;4.54;100.00;99303.94;5138245;28;20037;-77
2021/11/26 04:44:22;;;;;;;28.55;9.90;;;;;;;4.53;100.00;99305.69;5151212;28;20038;-76
2021/11/26 04:46:53;;;;;;;25.60;10.13;;;;;;;4.62;100.00;99296.78;5156646;28;20026;-77
2021/11/26 04:49:23;;;;;;;28.60;9.80;;;;;;;4.61;100.00;99288.16;5144128;28;20081;-77
2021/11/26 04:51:54;;;;;;;28.05;10.07;;;;;;;4.57;100.00;99281.41;5148672;28;20030;-77
2021/11/26 04:54:24;;;;;;;24.52;9.80;;;;;;;4.54;100.00;99284.09;5153005;28;20034;-78
2021/11/26 04:56:56;;;;;;;26.83;9.38;;;;;;;4.50;100.00;99286.81;5136862;28;20468;-78
2021/11/26 04:59:26;;;;;;;27.50;9.80;;;;;;;4.52;100.00;99280.72;5150792;28;20111;-78
2021/11/26 05:01:57;;;;;;;24.52;9.32;;;;;;;4.47;100.00;99280.00;5158859;28;20578;-78
2021/11/26 05:04:27;;;;;;;30.63;10.48;;;;;;;4.57;100.00;99278.81;5142955;28;20649;-78
2021/11/26 05:07:00;;;;;;;29.15;10.15;;;;;;;4.53;100.00;99268.59;5144293;28;20029;-77
2021/11/26 05:09:31;;;;;;;26.75;10.00;;;;;;;4.39;100.00;99271.66;5144381;28;20041;-78
2021/11/26 05:12:03;;;;;;;21.42;9.48;;;;;;;4.30;100.00;99261.56;5155668;28;20023;-78
2021/11/26 05:14:34;;;;;;;26.48;10.02;;;;;;;4.27;100.00;99253.09;5137231;28;20026;-78
2021/11/26 05:17:04;;;;;;;26.17;9.57;;;;;;;4.37;100.00;99260.50;5133806;28;20666;-78
2021/11/26 05:19:35;;;;;;;25.33;9.20;;;;;;;4.18;100.00;99259.41;5133069;28;20034;-78
2021/11/26 05:22:05;;;;;;;27.30;9.50;;;;;;;4.10;100.00;99253.59;5169779;28;20636;-76
2021/11/26 05:24:35;;;;;;;25.45;8.60;;;;;;;4.13;100.00;99245.75;5145397;28;20088;-76
2021/11/26 05:27:06;;;;;;;21.80;9.30;;;;;;;4.20;100.00;99241.25;5160204;28;20031;-77
2021/11/26 05:29:36;;;;;;;28.42;9.48;;;;;;;4.36;100.00;99238.13;5157362;28;20034;-76
2021/11/26 05:32:09;;;;;;;29.33;9.60;;;;;;;4.14;100.00;99231.94;5133888;28;20042;-78
2021/11/26 05:34:39;;;;;;;24.10;8.60;;;;;;;4.17;100.00;99237.03;5165131;28;20035;-78
2021/11/26 05:37:10;;;;;;;22.77;9.27;;;;;;;4.10;100.00;99237.28;5147479;28;20031;-77
2021/11/26 05:39:40;;;;;;;32.95;9.27;;;;;;;4.00;100.00;99223.78;5143700;28;20034;-77
2021/11/26 05:42:11;;;;;;;24.40;8.45;;;;;;;3.92;100.00;99224.91;5161760;28;20030;-78
2021/11/26 05:44:41;;;;;;;26.50;8.88;;;;;;;3.93;100.00;99217.09;5154562;23;20013;-75
2021/11/26 05:47:12;;;;;;;28.50;9.35;;;;;;;3.88;100.00;99211.25;5141532;28;20051;-76
2021/11/26 05:49:43;;;;;;;26.15;8.10;;;;;;;3.84;100.00;99216.53;5149728;28;20077;-77
2021/11/26 05:52:13;;;;;;;26.67;9.05;;;;;;;3.76;100.00;99218.53;5142726;28;20035;-76
2021/11/26 05:54:44;;;;;;;21.27;8.45;;;;;;;3.84;100.00;99211.38;5140820;28;20023;-75
2021/11/26 05:57:14;;;;;;;32.00;9.43;;;;;;;3.80;100.00;99214.94;5139608;28;20040;-75
2021/11/26 05:59:45;;;;;;;25.27;8.43;;;;;;;3.85;100.00;99203.59;5132878;28;20100;-76
2021/11/26 06:02:15;;;;;;;27.67;9.02;;;;;;;3.84;100.00;99207.06;5134368;28;20030;-76
2021/11/26 06:04:45;;;;;;;24.08;8.50;;;;;;;3.94;100.00;99194.69;5139319;28;20083;-77
2021/11/26 06:07:16;;;;;;;22.58;7.95;;;;;;;3.91;100.00;99199.94;5140020;28;20033;-75
2021/11/26 06:09:46;;;;;;;22.52;8.57;;;;;;;3.99;100.00;99192.81;5122009;28;20493;-76
2021/11/26 06:12:17;;;;;;;20.10;8.23;;;;;;;3.82;100.00;99192.50;5139667;28;20077;-76
2021/11/26 06:14:49;;;;;;;24.17;8.30;;;;;;;3.81;100.00;99189.03;5139100;28;20023;-77
2021/11/26 06:17:20;;;;;;;21.42;7.60;;;;;;;3.77;100.00;99190.03;5148322;28;20034;-77
2021/11/26 06:19:51;;;;;;;21.80;8.35;;;;;;;3.85;100.00;99187.22;5131789;28;20054;-76
2021/11/26 06:22:21;;;;;;;24.45;8.13;;;;;;;3.78;100.00;99183.97;5132742;28;20039;-76
2021/11/26 06:24:52;;;;;;;20.88;7.53;;;;;;;3.75;100.00;99178.91;5139616;28;20035;-77
2021/11/26 06:27:22;;;;;;;20.85;7.43;;;;;;;3.73;100.00;99170.38;5138865;28;20065;-77
2021/11/26 06:29:52;;;;;;;22.33;8.35;;;;;;;3.68;100.00;99172.25;5139764;28;20027;-76
2021/11/26 06:32:24;;;;;;;18.83;7.07;;;;;;;3.59;100.00;99169.94;5138594;28;20902;-76
2021/11/26 06:34:55;;;;;;;26.02;7.57;;;;;;;3.54;100.00;99175.31;5140609;28;20029;-76
2021/11/26 06:37:25;;;;;;;22.98;7.25;;;;;;;3.58;100.00;99166.56;5138177;28;20114;-75
2021/11/26 06:39:55;;;;;;;25.65;8.40;;;;;;;3.59;100.00;99162.19;5139872;28;20030;-75
2021/11/26 06:42:26;;;;;;;23.02;7.68;;;;;;;3.60;100.00;99156.13;5136970;28;20042;-76
2021/11/26 06:44:56;;;;;;;20.08;7.32;;;;;;;3.60;100.00;99155.31;5137293;28;20066;-77
2021/11/26 06:47:27;;;;;;;24.55;7.43;;;;;;;3.66;100.00;99150.81;5145225;28;20038;-77
2021/11/26 06:49:57;;;;;;;23.27;7.93;;;;;;;3.82;100.00;99151.97;5144191;28;20054;-75
2021/11/26 06:52:28;;;;;;;18.13;7.25;;;;;;;3.83;100.00;99148.53;5140087;28;20042;-76
2021/11/26 06:55:00;;;;;;;21.20;7.72;;;;;;;3.84;100.00;99147.66;5136489;28;20034;-76
2021/11/26 06:57:30;;;;;;;24.17;7.97;;;;;;;3.93;100.00;99142.16;5140212;28;20031;-77
2021/11/26 07:00:01;;;;;;;16.92;6.65;;;;;;;4.09;100.00;99150.28;5136802;28;20039;-76
2021/11/26 07:02:31;;;;;;;26.15;7.55;;;;;;;4.04;100.00;99150.44;5140299;28;20056;-76
2021/11/26 07:05:02;;;;;;;21.90;7.05;;;;;;;4.10;100.00;99147.63;5119668;28;20087;-78
2021/11/26 07:07:33;;;;;;;23.98;7.00;;;;;;;4.06;100.00;99140.88;5139797;28;20014;-76
2021/11/26 07:10:05;;;;;;;20.67;7.15;;;;;;;4.03;100.00;99146.16;5136698;28;20031;-77
2021/11/26 07:12:36;;;;;;;22.60;6.78;;;;;;;4.28;100.00;99143.63;5133117;28;20027;-77
2021/11/26 07:15:08;;;;;;;19.05;6.70;;;;;;;4.18;100.00;99144.81;5134824;28;20038;-75
2021/11/26 07:17:39;;;;;;;16.15;5.93;;;;;;;4.25;100.00;99146.28;5131177;28;20031;-75
2021/11/26 07:20:11;;;;;;;20.45;6.45;;;;;;;4.23;100.00;99143.75;5140016;28;20336;-77
2021/11/26 07:22:42;;;;;;;18.48;6.68;;;;;;;4.35;100.00;99143.38;5139742;28;20026;-76
2021/11/26 07:25:13;;;;;;;20.98;6.22;;;;;;;4.48;100.00;99134.28;5138152;28;20464;-75
2021/11/26 07:27:44;;;;;;;17.88;5.80;;;;;;;4.52;100.00;99132.44;5139366;28;20030;-77
2021/11/26 07:30:14;;;;;;;17.40;5.40;;;;;;;4.61;100.00;99119.19;5137605;28;20031;-76
2021/11/26 07:32:45;;;;;;;15.57;5.55;;;;;;;4.65;100.00;99125.94;5139622;28;20053;-75
2021/11/26 07:35:15;;;;;;;12.13;5.07;;;;;;;4.71;100.00;99121.41;5140396;28;20037;-75
2021/11/26 07:37:46;;;;;;;16.90;5.10;;;;;;;4.70;100.00;99119.72;5138219;28;20034;-76
2021/11/26 07:40:16;;;;;;;16.95;5.50;;;;;;;4.60;100.00;99126.09;5138050;28;20039;-76
2021/11/26 07:42:47;;;;;;;14.93;5.05;;;;;;;4.69;100.00;99112.00;5138336;28;20524;-76
2021/11/26 07:45:17;;;;;;;13.65;4.88;;;;;;;4.85;100.00;99119.16;5131037;28;20440;-74
2021/11/26 07:47:48;;;;;;;14.68;5.55;;;;;;;4.87;100.00;99116.50;5131706;28;20027;-75
2021/11/26 07:50:19;;;;;;;10.13;4.97;;;;;;;4.88;100.00;99110.44;5140253;28;20609;-76
2021/11/26 07:52:49;;;;;;;13.15;4.90;;;;;;;4.85;100.00;99108.81;5129033;28;20095;-75
2021/11/26 07:55:19;;;;;;;13.27;5.55;;;;;;;4.76;100.00;99103.97;5132015;28;20034;-74
2021/11/26 07:57:50;;;;;;;13.60;5.15;;;;;;;4.88;100.00;99093.19;5138554;28;20027;-76
2021/11/26 08:00:20;;;;;;;12.95;4.72;;;;;;;4.87;100.00;99096.66;5142441;28;20035;-76
2021/11/26 08:02:51;;;;;;;12.77;4.55;;;;;;;4.82;100.00;99095.13;5146589;28;20507;-78
2021/11/26 08:05:21;;;;;;;11.75;4.60;;;;;;;4.79;100.00;99096.09;5142635;28;20300;-76
2021/11/26 08:07:52;;;;;;;10.43;4.45;;;;;;;4.87;100.00;99086.31;5138459;28;20026;-75
2021/11/26 08:10:23;;;;;;;11.98;4.80;;;;;;;4.89;100.00;99092.28;5134080;28;20039;-76
2021/11/26 08:12:53;;;;;;;11.32;4.13;;;;;;;5.00;100.00;99073.75;5147737;28;20034;-76
2021/11/26 08:15:24;;;;;;;13.50;4.50;;;;;;;4.90;100.00;99068.06;5141186;28;20528;-75
2021/11/26 08:17:54;;;;;;;9.73;4.38;;;;;;;5.06;100.00;99076.09;5148198;28;20035;-77
2021/11/26 08:20:26;;;;;;;11.32;4.70;;;;;;;5.06;100.00;99071.78;5132400;28;20038;-75
2021/11/26 08:22:56;;;;;;;16.23;5.30;;;;;;;5.09;100.00;99069.06;5139074;28;20038;-76
2021/11/26 08:25:28;;;;;;;11.70;4.55;;;;;;;5.11;100.00;99072.44;5141497;28;20500;-75
2021/11/26 08:27:58;;;;;;;12.88;5.70;;;;;;;5.07;100.00;99065.69;5138860;28;20039;-76
2021/11/26 08:30:29;;;;;;;12.77;5.25;;;;;;;5.17;100.00;99064.44;5142276;28;20081;-76
2021/11/26 08:33:01;;;;;;;15.73;6.28;;;;;;;5.18;100.00;99060.13;5138692;28;20712;-76
2021/11/26 08:35:31;;;;;;;14.48;4.80;;;;;;;5.25;100.00;99054.66;5142320;28;20050;-76
2021/11/26 08:38:01;;;;;;;15.38;5.07;;;;;;;5.16;100.00;99047.22;5139051;28;20197;-77
2021/11/26 08:40:32;;;;;;;14.52;5.35;;;;;;;5.17;100.00;99042.91;5143457;28;20118;-77
2021/11/26 08:43:02;;;;;;;16.25;5.53;;;;;;;5.13;100.00;99030.97;5140123;28;20031;-77
2021/11/26 08:45:33;;;;;;;18.75;6.65;;;;;;;5.20;100.00;99022.91;5142515;28;20033;-76
2021/11/26 08:48:04;;;;;;;12.02;5.22;;;;;;;5.13;100.00;99031.81;5146911;28;20027;-76
2021/11/26 08:50:34;;;;;;;17.10;5.63;;;;;;;5.14;100.00;99032.66;5149953;28;20022;-77
2021/11/26 08:53:06;;;;;;;11.82;5.15;;;;;;;5.21;100.00;99024.59;5143372;28;20037;-75
2021/11/26 08:55:39;;;;;;;14.15;5.32;;;;;;;5.35;100.00;99026.66;5139509;28;20031;-76
2021/11/26 08:58:12;;;;;;;13.85;4.60;;;;;;;5.45;99.11;99023.63;5137173;28;20106;-75
2021/11/26 09:00:43;;;;;;;10.32;4.40;;;;;;;5.51;98.78;99020.78;5130996;28;20041;-75
2021/11/26 09:03:15;;;;;;;13.90;4.93;;;;;;;5.32;99.48;99026.78;5147635;28;20027;-76
2021/11/26 09:05:45;;;;;;;13.35;5.25;;;;;;;5.37;98.36;99024.84;5147224;28;20031;-75
2021/11/26 09:08:16;;;;;;;12.95;5.22;;;;;;;5.39;98.92;99018.69;5148037;28;20572;-76
2021/11/26 09:10:48;;;;;;;13.63;4.50;;;;;;;5.39;99.89;99013.53;5125650;28;20485;-76
2021/11/26 09:13:19;;;;;;;10.85;4.60;;;;;;;5.42;99.45;99021.16;5136993;28;20039;-75
2021/11/26 09:15:49;;;;;;;14.60;5.07;;;;;;;5.41;100.00;99017.72;5134840;28;20088;-77
2021/11/26 09:18:20;;;;;;;10.43;5.22;;;;;;;5.36;100.00;99012.78;5151947;28;20031;-75
2021/11/26 09:20:52;;;;;;;13.43;5.15;;;;;;;5.42;99.14;99005.63;5139768;28;20436;-76
2021/11/26 09:23:23;;;;;;;13.20;5.20;;;;;;;5.50;99.34;99007.00;5142097;28;20094;-76
2021/11/26 09:25:54;;;;;;;13.57;5.47;;;;;;;5.68;97.94;99005.41;5140787;28;20031;-77
2021/11/26 09:28:25;;;;;;;11.65;4.80;;;;;;;5.72;97.58;98999.22;5142697;28;20018;-75
2021/11/26 09:30:55;;;;;;;10.90;4.70;;;;;;;5.83;96.79;99009.97;5140774;28;20548;-76
2021/11/26 09:33:32;;;;;;;12.18;5.47;;;;;;;5.80;96.81;98999.75;5142138;28;20035;-77
2021/11/26 09:36:05;;;;;;;11.43;4.65;;;;;;;5.87;96.33;98990.78;5139837;28;20027;-76
2021/11/26 09:38:37;;;;;;;17.95;4.93;;;;;;;5.95;95.95;98989.56;5135471;28;20536;-76
2021/11/26 09:41:11;;;;;;;13.13;4.97;;;;;;;5.99;96.08;98983.38;5141935;28;20062;-77
2021/11/26 09:43:41;;;;;;;13.60;4.57;;;;;;;6.13;94.84;98977.59;5127918;28;20047;-75
2021/11/26 09:46:12;;;;;;;12.05;4.70;;;;;;;5.99;95.70;98974.72;5149872;28;20078;-76
2021/11/26 09:48:42;;;;;;;11.57;4.57;;;;;;;6.16;95.06;98967.06;5132143;28;20055;-75
2021/11/26 09:51:12;;;;;;;13.45;4.65;;;;;;;6.14;95.28;98963.69;5135465;28;20027;-75
2021/11/26 09:53:43;;;;;;;12.38;4.80;;;;;;;6.15;94.58;98960.19;5141790;28;20087;-76
2021/11/26 09:56:14;;;;;;;12.27;4.35;;;;;;;6.15;95.57;98949.81;5141448;28;20030;-77
2021/11/26 09:58:45;;;;;;;12.00;4.63;;;;;;;6.22;95.02;98946.91;5142130;28;20507;-76
2021/11/26 10:01:15;;;;;;;9.57;4.47;;;;;;;6.23;96.49;98948.59;5141791;28;20043;-75
2021/11/26 10:03:51;;;;;;;11.63;4.40;;;;;;;6.35;96.34;98944.59;5140745;28;20054;-75
2021/11/26 10:06:23;;;;;;;9.02;3.83;;;;;;;6.35;95.16;98936.81;5142606;28;20031;-76
2021/11/26 10:09:03;;;;;;;12.63;4.78;;;;;;;6.21;94.49;98937.44;5140961;28;20031;-75
2021/11/26 10:11:38;;;;;;;11.20;5.35;;;;;;;6.22;94.53;98925.31;5135584;28;20022;-76
2021/11/26 10:14:35;;;;;;;12.02;5.07;;;;;;;6.23;94.06;98916.63;5141971;28;20543;-75
2021/11/26 10:17:13;;;;;;;14.57;5.22;;;;;;;6.17;93.34;98922.06;5139981;28;20050;-77
2021/11/26 10:20:07;;;;;;;18.88;5.75;;;;;;;6.00;94.36;98921.97;5128308;28;20034;-76
2021/11/26 10:22:42;;;;;;;13.10;5.70;;;;;;;6.18;92.93;98916.84;5139895;28;20019;-77
2021/11/26 10:25:16;;;;;;;13.25;5.78;;;;;;;6.09;92.93;98903.44;5143596;28;20165;-76
2021/11/26 10:27:59;;;;;;;14.57;6.32;;;;;;;6.12;93.32;98898.09;5149793;28;20022;-75
2021/11/26 10:30:38;;;;;;;13.05;5.90;;;;;;;6.09;93.90;98890.47;5148078;28;20030;-75
2021/11/26 10:33:15;;;;;;;13.75;5.93;;;;;;;6.17;92.79;98885.75;5145743;28;20031;-77
2021/11/26 10:35:48;;;;;;;13.98;6.28;;;;;;;6.15;94.55;98875.47;5149396;28;20046;-78
2021/11/26 10:38:33;;;;;;;16.98;6.63;;;;;;;6.01;94.70;98874.41;5128874;28;20039;-77
2021/11/26 10:41:13;;;;;;;13.77;6.18;;;;;;;6.20;93.45;98872.66;5142368;28;20038;-77
2021/11/26 10:46:45;;;;;;;16.42;6.40;;;;;;;6.24;92.57;98856.06;5138964;28;20042;-77
2021/11/26 10:49:38;;;;;;;13.80;5.90;;;;;;;6.19;94.08;98852.81;5143953;28;20034;-78
2021/11/26 10:52:19;;;;;;;13.00;6.07;;;;;;;6.05;94.90;98852.63;5139005;28;20030;-78
2021/11/26 10:57:57;;;;;;;12.98;5.80;;;;;;;6.07;95.39;98845.63;5134925;28;20035;-77
2021/11/26 11:00:28;;;;;;;14.43;6.43;;;;;;;5.98;97.02;98836.50;5127012;28;20087;-77
2021/11/26 11:02:58;;;;;;;15.35;6.32;;;;;;;5.98;96.75;98833.06;5131197;28;20051;-77
2021/11/26 11:05:37;;;;;;;15.35;6.53;;;;;;;5.96;97.77;98824.50;5139809;28;20550;-77
2021/11/26 11:08:20;;;;;;;11.88;6.00;;;;;;;5.85;99.32;98826.72;5136489;28;20031;-78
2021/11/26 11:10:52;;;;;;;16.83;6.30;;;;;;;5.73;100.00;98817.72;5137523;28;20018;-77
2021/11/26 11:13:29;;;;;;;15.40;6.47;;;;;;;5.66;100.00;98820.66;5144714;28;20027;-77
2021/11/26 11:16:12;;;;;;;15.55;6.47;;;;;;;5.67;100.00;98806.78;5144643;28;20030;-77
2021/11/26 11:18:42;;;;;;;15.77;6.95;;;;;;;5.66;100.00;98820.66;5144744;28;20027;-77
2021/11/26 11:21:13;;;;;;;14.95;6.65;;;;;;;5.70;100.00;98807.50;5143705;28;20157;-77
2021/11/26 11:23:44;;;;;;;15.25;6.80;;;;;;;5.72;100.00;98800.50;5149821;28;20050;-81
2021/11/26 11:26:15;;;;;;;20.30;7.57;;;;;;;5.44;100.00;98797.44;5141944;28;20046;-77
2021/11/26 11:28:47;;;;;;;13.88;6.45;;;;;;;5.40;100.00;98795.88;5139103;28;20023;-76
2021/11/26 11:31:17;;;;;;;15.35;6.35;;;;;;;5.59;100.00;98793.34;5138686;28;20043;-77
2021/11/26 11:33:48;;;;;;;16.52;6.47;;;;;;;5.52;100.00;98786.72;5137109;28;20023;-75
2021/11/26 11:36:19;;;;;;;12.57;6.55;;;;;;;5.30;100.00;98787.75;5133531;28;20049;-76
2021/11/26 11:38:58;;;;;;;15.98;6.95;;;;;;;5.34;100.00;98784.94;5134482;28;20504;-76
2021/11/26 11:41:28;;;;;;;17.98;7.82;;;;;;;5.30;100.00;98782.59;5136326;28;20455;-77
2021/11/26 11:43:58;;;;;;;16.05;7.28;;;;;;;5.24;100.00;98775.91;5138873;28;20022;-77
2021/11/26 11:46:35;;;;;;;15.13;7.97;;;;;;;5.28;100.00;98764.50;5143828;28;20026;-77
2021/11/26 11:49:07;;;;;;;17.35;8.50;;;;;;;5.23;100.00;98761.28;5146087;28;20043;-77
2021/11/26 11:51:46;;;;;;;17.23;8.13;;;;;;;5.38;100.00;98765.81;5125390;28;20031;-78